Time;durP1;ratioP1;P1;durP2;ratioP2;P2;SDS_P1;SDS_P2;PMS_P1;PMS_P2;Temp;Humidity;BMP_temperature;BMP_pressure;BME280_temperature;BME280_humidity;BME280_pressure;Samples;Min_cycle;Max_cycle;Signal;HPM_P1;HPM_P2
2022/10/30 08:43:32;;;;;;;;;;;14.10;99.90;;;;;;6181285;23;19920;-72
2022/10/30 08:46:01;;;;;;;;;;;14.20;99.90;;;;;;6135845;23;20003;-74
2022/10/30 08:48:47;;;;;;;;;;;14.20;99.90;;;;;;6136191;23;19920;-80
2022/10/30 08:51:16;;;;;;;;;;;14.30;99.90;;;;;;6160341;23;19916;-75
2022/10/30 08:53:48;;;;;;;;;;;14.40;99.90;;;;;;6135337;23;19916;-74
2022/10/30 08:56:14;;;;;;;;;;;14.40;99.90;;;;;;6110867;23;19916;-75
2022/10/30 08:58:43;;;;;;;;;;;14.50;99.90;;;;;;6133980;23;19920;-75
2022/10/30 09:05:10;;;;;;;;;;;;;;;;;;;;;
2022/10/30 09:08:22;;;;;;;;;;;14.90;99.90;;;;;;6124137;23;20003;-73
2022/10/30 09:10:55;;;;;;;;;;;14.90;99.90;;;;;;6070828;23;19940;-74
2022/10/30 10:12:28;;;;;;;;;;;16.80;99.90;;;;;;6178320;23;19920;-72
2022/10/30 10:15:03;;;;;;;;;;;16.80;99.90;;;;;;6163375;23;19924;-77
2022/10/30 10:17:33;;;;;;;;;;;16.90;99.90;;;;;;6138948;23;19920;-75
2022/10/30 10:20:02;;;;;;;;;;;17.00;99.90;;;;;;6163773;23;20006;-74
2022/10/30 10:22:34;;;;;;;;;;;17.10;99.90;;;;;;6138269;23;19924;-74
2022/10/30 10:25:14;;;;;;;;;;;17.10;99.90;;;;;;6163060;23;19917;-77
2022/10/30 10:28:01;;;;;;;;;;;17.10;99.90;;;;;;6138500;23;20282;-72
2022/10/30 10:30:54;;;;;;;;;;;17.00;99.90;;;;;;6138661;23;19994;-76
2022/10/30 10:33:54;;;;;;;;;;;17.10;99.90;;;;;;6189508;23;20242;-74
2022/10/30 10:36:31;;;;;;;;;;;17.10;99.90;;;;;;6162580;23;19924;-74
2022/10/30 10:38:56;;;;;;;;;;;17.20;99.90;;;;;;6138255;23;19991;-74
2022/10/30 10:41:40;;;;;;;;;;;17.20;99.90;;;;;;6137161;23;19962;-73
2022/10/30 10:44:06;;;;;;;;;;;17.20;99.90;;;;;;6161309;23;19983;-72
2022/10/30 10:46:47;;;;;;;;;;;17.20;99.90;;;;;;6136790;23;20335;-72
2022/10/30 10:49:19;;;;;;;;;;;17.20;99.90;;;;;;6136910;23;19920;-74
2022/10/30 10:51:50;;;;;;;;;;;17.30;99.90;;;;;;6161294;23;19920;-75
2022/10/30 10:54:16;;;;;;;;;;;17.40;99.90;;;;;;6161480;23;19995;-74
2022/10/30 10:56:43;;;;;;;;;;;17.40;99.90;;;;;;6161260;23;19927;-72
2022/10/30 10:59:17;;;;;;;;;;;17.50;99.90;;;;;;6161418;23;19916;-72
2022/10/30 11:01:48;;;;;;;;;;;17.50;99.90;;;;;;6161353;23;19920;-74
2022/10/30 11:04:33;;;;;;;;;;;17.50;99.90;;;;;;6137194;23;19964;-76
2022/10/30 11:07:01;;;;;;;;;;;17.60;99.90;;;;;;6160829;23;19917;-74
2022/10/30 11:09:27;;;;;;;;;;;17.60;99.90;;;;;;6161435;23;20312;-73
2022/10/30 11:11:54;;;;;;;;;;;17.70;99.90;;;;;;6161161;23;19968;-72
2022/10/30 11:14:24;;;;;;;;;;;17.70;99.90;;;;;;6135973;23;19952;-72
2022/10/30 11:16:52;;;;;;;;;;;17.70;99.90;;;;;;6187315;23;19917;-73
2022/10/30 11:19:18;;;;;;;;;;;17.60;99.90;;;;;;6136278;23;20014;-72
2022/10/30 11:33:12;;;;;;;;;;;17.80;99.90;;;;;;6178130;23;19921;-72
2022/10/30 11:35:41;;;;;;;;;;;17.80;99.90;;;;;;6158854;23;19981;-73
2022/10/30 11:38:14;;;;;;;;;;;17.80;99.90;;;;;;6161026;23;19924;-71
2022/10/30 11:40:45;;;;;;;;;;;17.80;99.90;;;;;;6135892;23;20327;-76
2022/10/30 11:43:12;;;;;;;;;;;17.80;99.90;;;;;;6136207;23;19972;-73
2022/10/30 11:45:42;;;;;;;;;;;17.90;99.90;;;;;;6136002;23;19924;-73
2022/10/30 11:48:18;;;;;;;;;;;17.90;99.90;;;;;;6135976;23;19927;-73
2022/10/30 11:50:46;;;;;;;;;;;17.90;99.90;;;;;;6136025;23;19923;-73
2022/10/30 11:53:20;;;;;;;;;;;17.90;99.90;;;;;;6160807;23;19924;-72
2022/10/30 11:55:47;;;;;;;;;;;17.90;99.90;;;;;;6160447;23;19916;-72
2022/10/30 11:58:36;;;;;;;;;;;17.90;99.90;;;;;;6137373;23;19920;-71
2022/10/30 12:01:16;;;;;;;;;;;17.90;99.90;;;;;;6118377;23;19921;-73
2022/10/30 12:03:42;;;;;;;;;;;18.00;99.90;;;;;;6161523;23;19947;-71
2022/10/30 12:06:07;;;;;;;;;;;18.00;99.90;;;;;;6136992;23;20004;-72
2022/10/30 12:08:33;;;;;;;;;;;18.00;99.90;;;;;;6135699;23;20280;-74
2022/10/30 12:11:00;;;;;;;;;;;18.00;99.90;;;;;;6160648;23;19916;-72
2022/10/30 12:13:27;;;;;;;;;;;18.00;99.90;;;;;;6160399;23;19922;-74
2022/10/30 12:16:04;;;;;;;;;;;18.00;99.90;;;;;;6136115;23;19916;-75
2022/10/30 12:18:31;;;;;;;;;;;18.00;99.90;;;;;;6160010;23;19924;-74
2022/10/30 13:02:49;;;;;;;;;;;18.20;99.90;;;;;;6096001;23;19932;-75
2022/10/30 14:00:18;;;;;;;;;;;18.00;99.90;;;;;;6162955;23;19927;-74
2022/10/30 22:06:18;;;;;;;;;;;12.30;99.90;;;;;;6181449;23;19970;-82
2022/10/30 22:08:51;;;;;;;;;;;12.20;99.90;;;;;;6158911;23;19920;-78
2022/10/30 22:15:10;;;;;;;;;;;12.00;99.90;;;;;;6185919;23;19919;-81
2022/10/30 22:17:36;;;;;;;;;;;12.00;99.90;;;;;;6134249;23;19923;-79
2022/10/30 22:20:02;;;;;;;;;;;11.90;99.90;;;;;;6134728;23;19921;-80
2022/10/30 22:22:31;;;;;;;;;;;11.90;99.90;;;;;;6135428;23;19916;-80
2022/10/30 22:24:56;;;;;;;;;;;11.80;99.90;;;;;;6135063;23;19927;-81
2022/10/30 22:27:22;;;;;;;;;;;11.80;99.90;;;;;;6134945;23;19927;-79
2022/10/30 22:29:51;;;;;;;;;;;11.80;99.90;;;;;;6135023;23;19916;-80
2022/10/30 22:32:16;;;;;;;;;;;11.60;99.90;;;;;;6135074;23;19923;-79
2022/10/30 22:34:42;;;;;;;;;;;11.70;99.90;;;;;;6135248;23;19917;-78
2022/10/30 22:37:08;;;;;;;;;;;11.60;99.90;;;;;;6135129;23;19966;-80
2022/10/30 22:39:34;;;;;;;;;;;11.60;99.90;;;;;;6136700;23;19916;-80
2022/10/30 22:41:59;;;;;;;;;;;11.60;99.90;;;;;;6137013;23;19948;-81
2022/10/30 22:44:25;;;;;;;;;;;11.50;99.90;;;;;;6136896;23;19924;-79
2022/10/30 22:46:53;;;;;;;;;;;11.50;99.90;;;;;;6137369;23;20278;-79
2022/10/30 22:49:19;;;;;;;;;;;11.40;99.90;;;;;;6136880;23;19916;-79
2022/10/30 22:51:44;;;;;;;;;;;11.50;99.90;;;;;;6136866;23;19970;-80
2022/10/30 22:54:11;;;;;;;;;;;11.50;99.90;;;;;;6137134;23;19916;-80
2022/10/30 22:56:37;;;;;;;;;;;11.50;99.90;;;;;;6136702;23;19939;-79
2022/10/30 22:59:04;;;;;;;;;;;11.50;99.90;;;;;;6137157;23;19917;-80
2022/10/30 23:01:31;;;;;;;;;;;11.40;99.90;;;;;;6136750;23;19948;-79
2022/10/30 23:03:58;;;;;;;;;;;11.40;99.90;;;;;;6136863;23;19932;-79
2022/10/30 23:06:23;;;;;;;;;;;11.40;99.90;;;;;;6136315;23;19920;-80
2022/10/30 23:08:53;;;;;;;;;;;11.30;99.90;;;;;;6136896;23;19963;-79
2022/10/30 23:11:21;;;;;;;;;;;11.30;99.90;;;;;;6135644;23;19955;-78
2022/10/30 23:13:47;;;;;;;;;;;11.30;99.90;;;;;;6136724;23;19920;-79
2022/10/30 23:16:23;;;;;;;;;;;11.30;99.90;;;;;;6136712;23;19956;-79
2022/10/30 23:18:53;;;;;;;;;;;11.30;99.90;;;;;;6112329;23;19991;-81
2022/10/30 23:21:23;;;;;;;;;;;11.30;99.90;;;;;;6137455;23;19920;-80
2022/10/30 23:23:52;;;;;;;;;;;11.30;99.90;;;;;;6136400;23;19923;-77
2022/10/30 23:26:19;;;;;;;;;;;11.20;99.90;;;;;;6136087;23;20009;-78
2022/10/30 23:28:45;;;;;;;;;;;11.10;99.90;;;;;;6136443;23;19991;-78
2022/10/30 23:31:21;;;;;;;;;;;11.10;99.90;;;;;;6136513;23;20251;-77
2022/10/30 23:33:48;;;;;;;;;;;11.10;99.90;;;;;;6136512;23;19916;-77
2022/10/30 23:36:17;;;;;;;;;;;10.90;99.90;;;;;;6136725;23;19923;-79
2022/10/30 23:38:53;;;;;;;;;;;11.10;99.90;;;;;;6161039;23;20378;-80
2022/10/30 23:41:22;;;;;;;;;;;11.00;99.90;;;;;;6136424;23;19927;-81
2022/10/30 23:43:47;;;;;;;;;;;11.00;99.90;;;;;;6136353;23;20288;-80
2022/10/30 23:46:13;;;;;;;;;;;11.00;99.90;;;;;;6136240;23;19983;-80
2022/10/30 23:48:39;;;;;;;;;;;11.10;99.90;;;;;;6135924;23;19920;-80
2022/10/30 23:51:10;;;;;;;;;;;11.00;99.90;;;;;;6136406;23;19923;-80
2022/10/30 23:53:36;;;;;;;;;;;11.00;99.90;;;;;;6160497;23;19916;-80
2022/10/30 23:56:02;;;;;;;;;;;11.00;99.90;;;;;;6136261;23;19920;-81
2022/10/30 23:58:28;;;;;;;;;;;10.80;99.90;;;;;;6136261;23;19916;-79
